Egypt
Curation software by Lingospot
Egypt Stories
Egypt Blog Posts
Egypt Videos
Egypt Tweets
HESN 271300Z 36009KT CAVOK 23/02 Q1017 NOSIG

Twitter: @Egypt_METARs

HESH 271300Z 06008KT 9999 FEW020 23/10 Q1016 NOSIG

Twitter: @Egypt_METARs

RT @davidahearst: British police freed to investigate #Egypt war crimes by High Court order http://t.co/5dy5kOOfJ7

Twitter: @anthonyofegypt

Egypt Map